Time;durP1;ratioP1;P1;durP2;ratioP2;P2;SDS_P1;SDS_P2;PMS_P1;PMS_P2;Temp;Humidity;BMP_temperature;BMP_pressure;BME280_temperature;BME280_humidity;BME280_pressure;Samples;Min_cycle;Max_cycle;Signal;HPM_P1;HPM_P2
2021/06/20 00:01:22;;;;;;;10.05;5.50;;;;;;;32.37;37.39;96046.88;4937185;28;20039;-36
2021/06/20 00:03:47;;;;;;;10.93;5.60;;;;;;;32.37;37.87;96046.88;4938570;28;20033;-33
2021/06/20 00:06:51;;;;;;;11.48;5.68;;;;;;;32.36;37.36;96039.91;4940500;28;20097;-42
2021/06/20 00:09:17;;;;;;;12.73;5.85;;;;;;;32.34;37.68;96037.38;4916637;28;20035;-36
2021/06/20 00:11:44;;;;;;;10.60;5.55;;;;;;;32.33;37.62;96036.56;4933028;28;20035;-35
2021/06/20 00:14:12;;;;;;;9.45;5.65;;;;;;;32.29;37.72;96035.19;4924228;28;20058;-40
2021/06/20 00:16:38;;;;;;;10.63;5.70;;;;;;;32.33;37.60;96035.72;4934795;28;20132;-38
2021/06/20 00:19:04;;;;;;;13.60;5.90;;;;;;;32.33;37.28;96047.16;4931397;28;20027;-42
2021/06/20 00:21:29;;;;;;;11.25;5.45;;;;;;;32.34;37.59;96040.03;4972599;28;20035;-34
2021/06/20 00:23:55;;;;;;;11.68;5.35;;;;;;;32.34;37.18;96045.34;4935677;28;20461;-41
2021/06/20 00:26:20;;;;;;;9.73;5.70;;;;;;;32.35;37.99;96040.88;4944983;28;20035;-34
2021/06/20 00:28:45;;;;;;;10.15;5.63;;;;;;;32.35;38.05;96054.13;4946395;28;20029;-39
2021/06/20 00:31:14;;;;;;;13.73;6.00;;;;;;;32.35;38.04;96060.28;4945261;28;20881;-43
2021/06/20 00:33:39;;;;;;;7.70;5.20;;;;;;;32.37;37.99;96062.78;4943746;28;20599;-36
2021/06/20 00:36:05;;;;;;;7.70;5.53;;;;;;;32.37;37.37;96055.66;4945353;28;20038;-36
2021/06/20 00:38:30;;;;;;;10.75;5.70;;;;;;;32.38;37.43;96069.78;4942954;28;20121;-34
2021/06/20 00:40:56;;;;;;;8.52;5.38;;;;;;;32.39;37.71;96068.78;4947072;28;20039;-43
2021/06/20 00:43:22;;;;;;;11.48;5.57;;;;;;;32.39;38.03;96066.13;4931490;28;20066;-40
2021/06/20 00:46:46;;;;;;;14.05;5.97;;;;;;;-148.56;100.00;61375.16;4950612;28;20022;-41
2021/06/20 00:50:12;;;;;;;11.15;5.32;;;;;;;-148.56;100.00;61375.16;4947611;28;20114;-42
2021/06/20 00:53:36;;;;;;;13.20;5.70;;;;;;;-148.56;100.00;61375.16;4941510;28;20871;-39
2021/06/20 00:57:00;;;;;;;13.68;6.35;;;;;;;-148.56;100.00;61375.16;4949969;28;20437;-33
2021/06/20 01:00:24;;;;;;;18.70;5.97;;;;;;;-148.56;100.00;61375.16;4961604;28;20034;-37
2021/06/20 01:03:48;;;;;;;23.20;6.75;;;;;;;-148.56;100.00;61375.16;4951679;28;20082;-41
2021/06/20 01:07:15;;;;;;;20.75;6.68;;;;;;;-148.56;100.00;61375.16;4948975;28;20382;-35
2021/06/20 01:10:39;;;;;;;19.80;6.78;;;;;;;-148.56;100.00;61375.16;4946928;28;20588;-37
2021/06/20 01:14:04;;;;;;;27.75;7.30;;;;;;;-148.56;100.00;61375.16;4950039;28;20149;-35
2021/06/20 01:17:28;;;;;;;26.42;6.82;;;;;;;-148.56;100.00;61375.16;4958286;28;20042;-36
2021/06/20 01:20:52;;;;;;;23.98;6.90;;;;;;;-148.56;100.00;61375.16;4945524;28;20034;-31
2021/06/20 01:24:16;;;;;;;32.30;7.97;;;;;;;-148.56;100.00;61375.16;4949257;28;20025;-38
2021/06/20 01:27:41;;;;;;;28.17;7.30;;;;;;;-148.56;100.00;61375.16;4945721;28;20029;-40
2021/06/20 01:31:10;;;;;;;27.25;7.20;;;;;;;-148.56;100.00;61375.16;4950311;28;20061;-44
2021/06/20 01:34:34;;;;;;;28.15;7.32;;;;;;;-148.56;100.00;61375.16;4940514;28;20043;-39
2021/06/20 01:37:58;;;;;;;30.17;6.95;;;;;;;-148.56;100.00;61375.16;4938105;28;20038;-39
2021/06/20 01:41:22;;;;;;;28.55;7.70;;;;;;;-148.56;100.00;61375.16;4950158;28;20034;-43
2021/06/20 01:44:58;;;;;;;27.75;7.20;;;;;;;-148.56;100.00;61375.16;4952656;28;20030;-39
2021/06/20 01:48:23;;;;;;;30.27;6.95;;;;;;;-148.56;100.00;61375.16;4942688;28;20026;-41
2021/06/20 01:51:49;;;;;;;32.95;7.47;;;;;;;-148.56;100.00;61375.16;4941186;28;20038;-37
2021/06/20 01:55:14;;;;;;;32.88;7.47;;;;;;;-148.56;100.00;61375.16;4945691;28;20097;-36
2021/06/20 01:58:38;;;;;;;34.22;7.60;;;;;;;-148.56;100.00;61375.16;4949635;28;20042;-39
2021/06/20 02:02:02;;;;;;;29.42;7.30;;;;;;;-148.56;100.00;61375.16;4938379;28;20283;-39
2021/06/20 02:05:26;;;;;;;25.88;6.63;;;;;;;-148.56;100.00;61375.16;4941747;28;20133;-37
2021/06/20 02:08:50;;;;;;;28.75;7.28;;;;;;;-148.56;100.00;61375.16;4946986;28;20033;-41
2021/06/20 02:12:13;;;;;;;25.83;6.97;;;;;;;-148.56;100.00;61375.16;4942524;28;20113;-35
2021/06/20 02:15:37;;;;;;;28.65;7.53;;;;;;;-148.56;100.00;61375.16;4931092;28;20034;-34
2021/06/20 02:19:01;;;;;;;28.83;7.63;;;;;;;-148.56;100.00;61375.16;4940790;28;20046;-37
2021/06/20 02:22:25;;;;;;;27.40;6.70;;;;;;;-148.56;100.00;61375.16;4938097;28;20771;-36
2021/06/20 02:25:49;;;;;;;27.58;6.90;;;;;;;-148.56;100.00;61375.16;4940032;28;20412;-39
2021/06/20 02:29:13;;;;;;;26.55;7.00;;;;;;;-148.56;100.00;61375.16;4942045;28;20026;-39
2021/06/20 02:32:37;;;;;;;22.92;6.70;;;;;;;-148.56;100.00;61375.16;4943696;28;20057;-39
2021/06/20 02:36:01;;;;;;;28.52;6.78;;;;;;;-148.56;100.00;61375.16;4942600;28;20063;-36
2021/06/20 02:39:25;;;;;;;29.98;7.55;;;;;;;-148.56;100.00;61375.16;4940198;28;20184;-38
2021/06/20 02:42:49;;;;;;;25.55;7.35;;;;;;;-148.56;100.00;61375.16;4946721;28;20117;-37
2021/06/20 02:46:14;;;;;;;26.38;6.68;;;;;;;-148.56;100.00;61375.16;4947567;28;20026;-32
2021/06/20 02:49:38;;;;;;;26.02;6.57;;;;;;;-148.56;100.00;61375.16;4946275;28;20034;-39
2021/06/20 02:53:02;;;;;;;20.65;6.00;;;;;;;-148.56;100.00;61375.16;4946319;28;20034;-44
2021/06/20 02:56:26;;;;;;;25.88;6.45;;;;;;;-148.56;100.00;61375.16;4945050;28;20178;-35
2021/06/20 02:59:51;;;;;;;24.65;6.55;;;;;;;-148.56;100.00;61375.16;4949316;28;20417;-37
2021/06/20 03:03:15;;;;;;;26.45;6.35;;;;;;;-148.56;100.00;61375.16;4944146;28;20047;-39
2021/06/20 03:06:39;;;;;;;26.75;6.97;;;;;;;-148.56;100.00;61375.16;4944040;28;20476;-31
2021/06/20 03:10:03;;;;;;;25.40;6.47;;;;;;;-148.56;100.00;61375.16;4943582;28;21033;-39
2021/06/20 03:13:28;;;;;;;25.85;6.45;;;;;;;-148.56;100.00;61375.16;4942818;28;20062;-39
2021/06/20 03:16:52;;;;;;;17.70;5.90;;;;;;;-148.56;100.00;61375.16;4941793;28;20117;-38
2021/06/20 03:20:16;;;;;;;22.52;6.22;;;;;;;-148.56;100.00;61375.16;4951913;28;20036;-34
2021/06/20 03:23:39;;;;;;;20.65;6.10;;;;;;;-148.56;100.00;61375.16;4960634;28;20037;-37
2021/06/20 03:27:03;;;;;;;20.02;6.30;;;;;;;-148.56;100.00;61375.16;4976490;28;20033;-41
2021/06/20 03:30:28;;;;;;;23.13;6.03;;;;;;;-148.56;100.00;61375.16;4944805;28;20044;-36
2021/06/20 03:33:52;;;;;;;24.88;5.70;;;;;;;-148.56;100.00;61375.16;4943780;28;20042;-37
2021/06/20 03:37:15;;;;;;;15.68;5.75;;;;;;;-148.56;100.00;61375.16;4944650;28;20041;-35
2021/06/20 03:40:40;;;;;;;23.45;5.25;;;;;;;-148.56;100.00;61375.16;4942316;28;20669;-41
2021/06/20 03:44:04;;;;;;;19.00;5.10;;;;;;;-148.56;100.00;61375.16;4941901;28;20050;-35
2021/06/20 03:47:28;;;;;;;24.63;5.75;;;;;;;-148.56;100.00;61375.16;4944762;28;20097;-36
2021/06/20 03:50:52;;;;;;;18.67;5.40;;;;;;;-148.56;100.00;61375.16;4947578;28;20678;-42
2021/06/20 03:54:17;;;;;;;21.38;5.20;;;;;;;-148.56;100.00;61375.16;4947372;28;20106;-41
2021/06/20 03:57:41;;;;;;;19.20;5.20;;;;;;;-148.56;100.00;61375.16;4947781;28;20710;-38
2021/06/20 04:01:06;;;;;;;13.70;4.90;;;;;;;-148.56;100.00;61375.16;4946445;28;20033;-42
2021/06/20 04:04:30;;;;;;;26.10;5.30;;;;;;;-148.56;100.00;61375.16;4946313;28;20035;-39
2021/06/20 04:07:53;;;;;;;20.58;5.93;;;;;;;-148.56;100.00;61375.16;4945321;28;20031;-40
2021/06/20 04:11:17;;;;;;;18.55;5.07;;;;;;;-148.56;100.00;61375.16;4947535;28;20113;-37
2021/06/20 04:14:41;;;;;;;19.63;5.40;;;;;;;-148.56;100.00;61375.16;4944301;28;20042;-38
2021/06/20 04:18:06;;;;;;;16.77;5.45;;;;;;;-148.56;100.00;61375.16;4977245;28;20477;-34
2021/06/20 04:21:29;;;;;;;24.45;5.50;;;;;;;-148.56;100.00;61375.16;4948648;28;20045;-34
2021/06/20 04:24:54;;;;;;;17.23;5.18;;;;;;;-148.56;100.00;61375.16;4932463;28;20038;-36
2021/06/20 04:28:21;;;;;;;20.75;4.90;;;;;;;-148.56;100.00;61375.16;4945989;28;20783;-38
2021/06/20 04:31:45;;;;;;;20.98;4.95;;;;;;;-148.56;100.00;61375.16;4946030;28;20046;-40
2021/06/20 04:35:11;;;;;;;18.38;4.35;;;;;;;-148.56;100.00;61375.16;4947491;28;20022;-36
2021/06/20 04:38:34;;;;;;;18.85;5.18;;;;;;;-148.56;100.00;61375.16;4948371;28;20635;-39
2021/06/20 04:41:58;;;;;;;13.20;5.07;;;;;;;-148.56;100.00;61375.16;4941960;28;20712;-39
2021/06/20 04:45:22;;;;;;;18.10;4.88;;;;;;;-148.56;100.00;61375.16;4949306;28;20027;-37
2021/06/20 04:48:46;;;;;;;19.52;4.88;;;;;;;-148.56;100.00;61375.16;4944788;28;20030;-41
2021/06/20 04:52:10;;;;;;;15.60;5.22;;;;;;;-148.56;100.00;61375.16;4942590;28;20838;-38
2021/06/20 04:55:35;;;;;;;17.50;4.60;;;;;;;-148.56;100.00;61375.16;4942807;28;20039;-38
2021/06/20 04:58:58;;;;;;;14.32;4.45;;;;;;;-148.56;100.00;61375.16;4945870;28;20063;-36
2021/06/20 05:02:22;;;;;;;14.50;4.47;;;;;;;-148.56;100.00;61375.16;4936323;28;20036;-40
2021/06/20 05:05:46;;;;;;;17.13;4.45;;;;;;;-148.56;100.00;61375.16;4933309;28;20336;-33
2021/06/20 05:09:10;;;;;;;16.58;4.63;;;;;;;-148.56;100.00;61375.16;4947422;28;21012;-36
2021/06/20 05:12:34;;;;;;;19.75;4.57;;;;;;;-148.56;100.00;61375.16;4948017;28;20054;-38
2021/06/20 05:15:58;;;;;;;12.75;3.88;;;;;;;-148.56;100.00;61375.16;4950046;28;20574;-41
2021/06/20 05:19:22;;;;;;;14.70;3.92;;;;;;;-148.56;100.00;61375.16;4944176;28;20042;-36
2021/06/20 05:22:46;;;;;;;16.45;4.10;;;;;;;-148.56;100.00;61375.16;4946494;28;20032;-37
2021/06/20 05:26:10;;;;;;;12.52;3.95;;;;;;;-148.56;100.00;61375.16;4946824;28;20097;-40
2021/06/20 05:29:33;;;;;;;16.70;3.88;;;;;;;-148.56;100.00;61375.16;4953143;28;20045;-40
2021/06/20 05:32:57;;;;;;;14.05;4.00;;;;;;;-148.56;100.00;61375.16;4943291;28;20034;-39
2021/06/20 05:36:21;;;;;;;16.42;4.45;;;;;;;-148.56;100.00;61375.16;4943552;28;20030;-43
2021/06/20 05:39:45;;;;;;;12.50;3.40;;;;;;;-148.56;100.00;61375.16;4944557;28;20043;-37
2021/06/20 05:43:09;;;;;;;15.77;3.83;;;;;;;-148.56;100.00;61375.16;4938757;28;20050;-33
2021/06/20 05:46:33;;;;;;;12.00;3.53;;;;;;;-148.56;100.00;61375.16;4948834;28;20045;-40
2021/06/20 05:49:57;;;;;;;11.88;3.20;;;;;;;-148.56;100.00;61375.16;4946186;28;20161;-38
2021/06/20 05:53:21;;;;;;;11.65;3.58;;;;;;;-148.56;100.00;61375.16;4941570;28;22000;-40
2021/06/20 05:56:45;;;;;;;15.63;3.75;;;;;;;-148.56;100.00;61375.16;4939985;28;20038;-39
2021/06/20 06:00:09;;;;;;;11.63;3.30;;;;;;;-148.56;100.00;61375.16;4951714;28;20030;-36
2021/06/20 06:03:34;;;;;;;12.68;3.45;;;;;;;-148.56;100.00;61375.16;4916063;28;20138;-37
2021/06/20 06:07:01;;;;;;;8.98;3.25;;;;;;;-148.56;100.00;61375.16;4913888;29;20031;-35
2021/06/20 06:10:25;;;;;;;12.30;3.17;;;;;;;-148.56;100.00;61375.16;4917099;28;20042;-41
2021/06/20 06:13:49;;;;;;;10.05;3.03;;;;;;;-148.56;100.00;61375.16;4940804;28;20046;-33
2021/06/20 06:17:13;;;;;;;13.85;3.08;;;;;;;-148.56;100.00;61375.16;4912329;28;20542;-35
2021/06/20 06:20:36;;;;;;;9.15;2.60;;;;;;;-148.56;100.00;61375.16;4912302;28;20036;-39
2021/06/20 06:24:01;;;;;;;10.93;3.13;;;;;;;-148.56;100.00;61375.16;4914043;28;20092;-41
2021/06/20 06:27:25;;;;;;;12.20;3.17;;;;;;;-148.56;100.00;61375.16;4915603;28;20712;-41
2021/06/20 06:30:49;;;;;;;10.43;3.28;;;;;;;-148.56;100.00;61375.16;4916231;28;21816;-40
2021/06/20 06:34:13;;;;;;;8.65;2.78;;;;;;;-148.56;100.00;61375.16;4947797;28;20191;-37
2021/06/20 06:37:36;;;;;;;10.65;3.38;;;;;;;-148.56;100.00;61375.16;4942571;28;20092;-37
2021/06/20 06:41:03;;;;;;;20.90;3.33;;;;;;;-148.56;100.00;61375.16;4939950;28;20030;-32
2021/06/20 06:44:27;;;;;;;19.45;3.30;;;;;;;-148.56;100.00;61375.16;4970878;28;20375;-33
2021/06/20 06:47:51;;;;;;;12.88;3.47;;;;;;;-148.56;100.00;61375.16;4946678;28;20125;-36
2021/06/20 06:51:15;;;;;;;20.20;3.78;;;;;;;-148.56;100.00;61375.16;4935443;28;20097;-34
2021/06/20 06:54:39;;;;;;;19.15;3.40;;;;;;;-148.56;100.00;61375.16;4940307;28;20022;-34
2021/06/20 06:58:03;;;;;;;14.27;3.20;;;;;;;-148.56;100.00;61375.16;4939233;28;20708;-41
2021/06/20 07:01:27;;;;;;;14.60;3.78;;;;;;;-148.56;100.00;61375.16;4931189;28;20611;-36
2021/06/20 07:04:51;;;;;;;14.15;3.53;;;;;;;-148.56;100.00;61375.16;4941652;28;20039;-37
2021/06/20 07:08:15;;;;;;;13.25;3.53;;;;;;;-148.56;100.00;61375.16;4948289;28;20508;-40
2021/06/20 07:11:39;;;;;;;14.02;3.67;;;;;;;-148.56;100.00;61375.16;4940180;28;20557;-42
2021/06/20 07:15:05;;;;;;;11.48;3.55;;;;;;;-148.56;100.00;61375.16;4936476;28;20081;-40
2021/06/20 07:18:29;;;;;;;15.13;3.50;;;;;;;-148.56;100.00;61375.16;4946719;28;20035;-39
2021/06/20 07:21:53;;;;;;;14.93;3.38;;;;;;;-148.56;100.00;61375.16;4938358;28;20026;-32
2021/06/20 07:25:20;;;;;;;12.85;3.30;;;;;;;-148.56;100.00;61375.16;4946759;28;20046;-39
2021/06/20 07:28:45;;;;;;;11.82;3.25;;;;;;;-148.56;100.00;61375.16;4934678;28;20082;-41
2021/06/20 07:32:09;;;;;;;17.10;4.03;;;;;;;-148.56;100.00;61375.16;4944532;28;20067;-33
2021/06/20 07:35:33;;;;;;;17.63;3.63;;;;;;;-148.56;100.00;61375.16;4942201;28;20043;-42
2021/06/20 07:38:58;;;;;;;15.85;3.85;;;;;;;-148.56;100.00;61375.16;4943787;28;20039;-32
2021/06/20 07:42:22;;;;;;;14.48;3.75;;;;;;;-148.56;100.00;61375.16;4947358;28;20030;-39
2021/06/20 07:45:46;;;;;;;12.55;3.80;;;;;;;-148.56;100.00;61375.16;4942530;28;20518;-35
2021/06/20 07:49:10;;;;;;;13.25;3.50;;;;;;;-148.56;100.00;61375.16;4949419;28;20508;-35
2021/06/20 07:52:34;;;;;;;11.63;3.55;;;;;;;-148.56;100.00;61375.16;4941783;28;20225;-35
2021/06/20 07:55:58;;;;;;;24.90;3.90;;;;;;;-148.56;100.00;61375.16;4943894;28;20065;-42
2021/06/20 07:59:21;;;;;;;16.35;3.45;;;;;;;-148.56;100.00;61375.16;4945217;28;20034;-40
2021/06/20 08:02:45;;;;;;;16.50;3.50;;;;;;;-148.56;100.00;61375.16;4937928;28;20057;-35
2021/06/20 08:06:09;;;;;;;14.13;3.63;;;;;;;-148.56;100.00;61375.16;4939877;28;20097;-37
2021/06/20 08:09:33;;;;;;;16.17;4.10;;;;;;;-148.56;100.00;61375.16;4935764;28;20109;-41
2021/06/20 08:12:57;;;;;;;15.07;3.60;;;;;;;-148.56;100.00;61375.16;4937256;28;20277;-43
2021/06/20 08:16:21;;;;;;;12.65;3.50;;;;;;;-148.56;100.00;61375.16;4940528;28;20727;-37
2021/06/20 08:19:45;;;;;;;17.30;3.45;;;;;;;-148.56;100.00;61375.16;4937614;28;22387;-37
2021/06/20 08:23:09;;;;;;;10.15;3.60;;;;;;;-148.56;100.00;61375.16;4938863;28;20066;-42
2021/06/20 08:26:33;;;;;;;12.35;3.15;;;;;;;-148.56;100.00;61375.16;4928180;28;20035;-38
2021/06/20 08:29:57;;;;;;;15.63;4.47;;;;;;;-148.56;100.00;61375.16;4939424;28;20228;-36
2021/06/20 08:33:21;;;;;;;12.15;3.78;;;;;;;-148.56;100.00;61375.16;4941419;28;20446;-34
2021/06/20 08:36:44;;;;;;;12.02;3.40;;;;;;;-148.56;100.00;61375.16;4938041;28;20031;-39
2021/06/20 08:40:08;;;;;;;14.15;3.80;;;;;;;-148.56;100.00;61375.16;4939238;28;20023;-37
2021/06/20 08:43:32;;;;;;;13.93;3.55;;;;;;;-148.56;100.00;61375.16;4937153;28;20035;-37
2021/06/20 08:46:56;;;;;;;14.60;3.90;;;;;;;-148.56;100.00;61375.16;4926964;28;20035;-37
2021/06/20 08:50:21;;;;;;;10.95;3.05;;;;;;;-148.56;100.00;61375.16;4937029;28;20461;-37
2021/06/20 08:53:44;;;;;;;10.55;3.40;;;;;;;-148.56;100.00;61375.16;4937042;28;20485;-41
2021/06/20 08:57:08;;;;;;;15.43;3.45;;;;;;;-148.56;100.00;61375.16;4935701;28;20069;-40
2021/06/20 09:00:32;;;;;;;13.32;3.38;;;;;;;-148.56;100.00;61375.16;4935865;28;20038;-39
2021/06/20 09:03:56;;;;;;;14.00;3.60;;;;;;;-148.56;100.00;61375.16;4944550;28;20050;-41
2021/06/20 09:07:27;;;;;;;10.25;3.78;;;;;;;-148.56;100.00;61375.16;4947820;28;20380;-32
2021/06/20 09:10:51;;;;;;;11.55;3.40;;;;;;;-148.56;100.00;61375.16;4943569;28;20031;-42
2021/06/20 09:14:15;;;;;;;12.20;3.80;;;;;;;-148.56;100.00;61375.16;4950418;28;20034;-38
2021/06/20 09:17:53;;;;;;;10.52;3.55;;;;;;;-148.56;100.00;61375.16;4949124;28;20042;-38
2021/06/20 09:21:27;;;;;;;9.38;3.00;;;;;;;-148.56;100.00;61375.16;4948619;28;20160;-33
2021/06/20 09:25:05;;;;;;;8.88;3.00;;;;;;;-148.56;100.00;61375.16;4953843;28;20126;-35
2021/06/20 09:28:33;;;;;;;10.40;3.08;;;;;;;-148.56;100.00;61375.16;4949874;28;20031;-38
2021/06/20 09:31:58;;;;;;;7.30;2.67;;;;;;;-148.56;100.00;61375.16;4949624;28;20745;-38
2021/06/20 09:35:22;;;;;;;7.10;2.70;;;;;;;-148.56;100.00;61375.16;4950226;28;20034;-38
2021/06/20 09:38:50;;;;;;;7.63;2.70;;;;;;;-148.56;100.00;61375.16;4948906;28;20616;-41
2021/06/20 09:42:17;;;;;;;8.95;2.70;;;;;;;-148.56;100.00;61375.16;4951551;28;20027;-32
2021/06/20 09:45:48;;;;;;;6.32;2.42;;;;;;;-148.56;100.00;61375.16;4952362;28;20041;-36
2021/06/20 09:49:45;;;;;;;6.75;2.53;;;;;;;-148.56;100.00;61375.16;4967978;28;20023;-34
2021/06/20 09:53:09;;;;;;;6.18;2.22;;;;;;;-148.56;100.00;61375.16;4941550;28;20039;-42
2021/06/20 09:56:34;;;;;;;8.55;2.58;;;;;;;-148.56;100.00;61375.16;4950813;28;20334;-40
2021/06/20 10:00:05;;;;;;;8.50;2.42;;;;;;;-148.56;100.00;61375.16;4951287;28;20019;-39
2021/06/20 10:03:29;;;;;;;4.60;2.15;;;;;;;-148.56;100.00;61375.16;4952209;28;20061;-34
2021/06/20 10:06:53;;;;;;;6.55;2.42;;;;;;;-148.56;100.00;61375.16;4977392;28;20744;-37
2021/06/20 10:10:17;;;;;;;5.07;2.30;;;;;;;-148.56;100.00;61375.16;4953976;28;20045;-42
2021/06/20 10:13:41;;;;;;;8.00;2.60;;;;;;;-148.56;100.00;61375.16;4949550;28;21139;-40
2021/06/20 10:17:31;;;;;;;5.85;2.40;;;;;;;-148.56;100.00;61375.16;4953840;28;20041;-38
2021/06/20 10:20:57;;;;;;;8.57;2.20;;;;;;;-148.56;100.00;61375.16;4950401;28;20030;-31
2021/06/20 10:24:21;;;;;;;5.20;2.10;;;;;;;-148.56;100.00;61375.16;4951152;28;20743;-39
2021/06/20 10:28:02;;;;;;;5.85;2.40;;;;;;;-148.56;100.00;61375.16;4949680;28;20039;-31
2021/06/20 10:31:33;;;;;;;5.88;2.10;;;;;;;-148.56;100.00;61375.16;4950319;28;20479;-33
2021/06/20 10:34:58;;;;;;;4.95;1.85;;;;;;;-148.56;100.00;61375.16;4946132;28;20030;-37
2021/06/20 10:38:53;;;;;;;5.82;2.08;;;;;;;-148.56;100.00;61375.16;4945349;28;21019;-34
2021/06/20 10:42:38;;;;;;;3.95;1.63;;;;;;;-148.56;100.00;61375.16;4944412;28;20561;-40
2021/06/20 10:46:13;;;;;;;6.10;2.00;;;;;;;-148.56;100.00;61375.16;4951054;28;20170;-36
2021/06/20 10:49:38;;;;;;;5.32;2.10;;;;;;;-148.56;100.00;61375.16;4944589;28;20023;-35
2021/06/20 10:53:12;;;;;;;4.75;2.20;;;;;;;-148.56;100.00;61375.16;4946773;28;20038;-33
2021/06/20 10:56:40;;;;;;;5.63;2.03;;;;;;;-148.56;100.00;61375.16;4951316;28;20146;-33
2021/06/20 11:00:04;;;;;;;3.85;1.80;;;;;;;-148.56;100.00;61375.16;4969502;28;20427;-40
2021/06/20 11:03:31;;;;;;;3.97;1.83;;;;;;;-148.56;100.00;61375.16;4948098;28;20047;-36
2021/06/20 11:06:56;;;;;;;3.88;1.60;;;;;;;-148.56;100.00;61375.16;4951101;28;20445;-37
2021/06/20 11:10:23;;;;;;;5.28;2.00;;;;;;;-148.56;100.00;61375.16;4946723;28;20038;-34
2021/06/20 11:13:56;;;;;;;5.18;2.03;;;;;;;-148.56;100.00;61375.16;4946124;28;20241;-39
2021/06/20 11:17:33;;;;;;;6.20;1.77;;;;;;;-148.56;100.00;61375.16;4948159;28;20795;-37
2021/06/20 11:21:07;;;;;;;4.40;1.80;;;;;;;-148.56;100.00;61375.16;4947873;28;20039;-38
2021/06/20 11:24:31;;;;;;;6.18;2.17;;;;;;;-148.56;100.00;61375.16;4947411;28;20039;-33
2021/06/20 11:27:58;;;;;;;3.58;1.80;;;;;;;-148.56;100.00;61375.16;4948544;28;20031;-38
2021/06/20 11:31:22;;;;;;;4.03;1.75;;;;;;;-148.56;100.00;61375.16;4977889;28;20027;-40
2021/06/20 11:34:51;;;;;;;3.80;1.70;;;;;;;-148.56;100.00;61375.16;4950046;28;20035;-39
2021/06/20 11:38:16;;;;;;;4.88;1.75;;;;;;;-148.56;100.00;61375.16;4945603;28;20026;-34
2021/06/20 11:41:49;;;;;;;3.63;1.65;;;;;;;-148.56;100.00;61375.16;4940966;28;20030;-35
2021/06/20 11:45:15;;;;;;;12.90;2.65;;;;;;;-148.56;100.00;61375.16;4970111;28;20492;-34
2021/06/20 11:48:49;;;;;;;15.05;3.55;;;;;;;-148.56;100.00;61375.16;4940969;28;20022;-40
2021/06/20 11:52:13;;;;;;;19.63;3.90;;;;;;;-148.56;100.00;61375.16;4934973;28;20027;-33
2021/06/20 11:55:40;;;;;;;37.33;4.25;;;;;;;-148.56;100.00;61375.16;4947980;28;20253;-36
2021/06/20 11:59:05;;;;;;;25.38;4.35;;;;;;;-148.56;100.00;61375.16;4938640;28;20061;-39
2021/06/20 12:02:58;;;;;;;25.77;5.10;;;;;;;-148.56;100.00;61375.16;4934263;28;20050;-34
2021/06/20 12:06:25;;;;;;;29.15;4.80;;;;;;;-148.56;100.00;61375.16;4938347;28;20039;-38
2021/06/20 12:09:49;;;;;;;23.15;4.72;;;;;;;-148.56;100.00;61375.16;4964747;28;20027;-33
2021/06/20 12:13:13;;;;;;;24.63;4.60;;;;;;;-148.56;100.00;61375.16;4947106;28;20035;-41
2021/06/20 12:16:45;;;;;;;28.45;4.97;;;;;;;-148.56;100.00;61375.16;4941793;28;21006;-39
2021/06/20 12:20:09;;;;;;;;;;;;;;;-148.56;100.00;61375.16;4936235;28;20018;-36
2021/06/20 12:23:44;;;;;;;28.25;5.18;;;;;;;-148.56;100.00;61375.16;4936681;28;20012;-36
2021/06/20 12:27:08;;;;;;;24.67;5.45;;;;;;;-148.56;100.00;61375.16;4969124;28;20146;-39
2021/06/20 12:30:32;;;;;;;23.00;5.45;;;;;;;-148.56;100.00;61375.16;4943921;28;20045;-33
2021/06/20 12:34:09;;;;;;;20.48;4.85;;;;;;;-148.56;100.00;61375.16;4941794;28;20795;-35
2021/06/20 12:37:42;;;;;;;24.27;4.75;;;;;;;-148.56;100.00;61375.16;4934409;28;20063;-38
2021/06/20 12:41:28;;;;;;;24.17;7.32;;;;;;;-148.56;100.00;61375.16;4940446;28;20081;-33
2021/06/20 12:45:30;;;;;;;18.98;5.88;;;;;;;-148.56;100.00;61375.16;4935395;28;20090;-38
2021/06/20 12:48:55;;;;;;;13.23;3.83;;;;;;;-148.56;100.00;61375.16;4947869;28;20050;-33
2021/06/20 12:52:24;;;;;;;16.35;4.13;;;;;;;-148.56;100.00;61375.16;4954541;28;20614;-36
2021/06/20 12:55:48;;;;;;;18.90;4.03;;;;;;;-148.56;100.00;61375.16;4943623;28;20539;-34
2021/06/20 12:59:12;;;;;;;16.33;4.68;;;;;;;-148.56;100.00;61375.16;4937948;28;20168;-35
2021/06/20 13:02:49;;;;;;;12.27;3.58;;;;;;;-148.56;100.00;61375.16;4948408;28;20042;-37
2021/06/20 13:06:13;;;;;;;17.38;4.15;;;;;;;-148.56;100.00;61375.16;4929680;28;20776;-37
2021/06/20 13:09:36;;;;;;;17.25;4.80;;;;;;;-148.56;100.00;61375.16;4941183;28;20030;-31
2021/06/20 13:13:00;;;;;;;19.02;4.47;;;;;;;-148.56;100.00;61375.16;4938878;28;20031;-38
2021/06/20 13:16:24;;;;;;;18.23;4.18;;;;;;;-148.56;100.00;61375.16;4942722;28;20341;-32
2021/06/20 13:19:48;;;;;;;15.48;3.83;;;;;;;-148.56;100.00;61375.16;4941182;28;20031;-40
2021/06/20 13:23:12;;;;;;;14.55;4.30;;;;;;;-148.56;100.00;61375.16;4940351;28;20498;-36
2021/06/20 13:25:50;;;;;;;12.60;4.28;;;;;;;32.39;38.03;96066.13;4940191;28;20035;-36
2021/06/20 13:28:15;;;;;;;12.63;4.20;;;;;;;32.01;33.16;95944.97;4941112;28;20133;-30
2021/06/20 13:30:42;;;;;;;12.20;3.70;;;;;;;32.06;33.22;95936.56;4929096;28;20046;-34
2021/06/20 13:34:05;;;;;;;16.88;3.97;;;;;;;-148.56;100.00;61375.16;4947501;28;22059;-40
2021/06/20 13:37:29;;;;;;;13.60;3.10;;;;;;;-148.56;100.00;61375.16;4948026;28;20767;-29
2021/06/20 13:40:53;;;;;;;13.65;3.60;;;;;;;-148.56;100.00;61375.16;4940533;28;20114;-39
2021/06/20 13:44:17;;;;;;;14.07;3.47;;;;;;;-148.56;100.00;61375.16;4925201;28;20035;-36
2021/06/20 13:47:41;;;;;;;14.70;3.50;;;;;;;-148.56;100.00;61375.16;4956837;28;20043;-35
2021/06/20 13:51:05;;;;;;;14.60;3.50;;;;;;;-148.56;100.00;61375.16;4939525;28;20097;-36
2021/06/20 13:54:30;;;;;;;18.95;5.32;;;;;;;-148.56;100.00;61375.16;4940278;28;20041;-36
2021/06/20 13:57:54;;;;;;;16.17;4.60;;;;;;;-148.56;100.00;61375.16;4941805;28;20868;-39
2021/06/20 14:01:18;;;;;;;14.50;3.70;;;;;;;-148.56;100.00;61375.16;4942504;28;20037;-39
2021/06/20 14:04:41;;;;;;;15.70;4.30;;;;;;;-148.56;100.00;61375.16;4941798;28;20491;-34
2021/06/20 14:08:05;;;;;;;15.73;4.55;;;;;;;-148.56;100.00;61375.16;4942763;28;20089;-32
2021/06/20 14:11:29;;;;;;;22.95;5.00;;;;;;;-148.56;100.00;61375.16;4940265;28;20565;-42
2021/06/20 14:14:54;;;;;;;14.52;4.22;;;;;;;-148.56;100.00;61375.16;4937816;28;20299;-32
2021/06/20 14:18:17;;;;;;;12.38;3.53;;;;;;;-148.56;100.00;61375.16;4940531;28;20561;-32
2021/06/20 14:21:41;;;;;;;20.27;4.20;;;;;;;-148.56;100.00;61375.16;4941970;28;20073;-31
2021/06/20 14:25:06;;;;;;;37.17;6.32;;;;;;;-148.56;100.00;61375.16;4937345;28;20514;-29
2021/06/20 14:28:30;;;;;;;39.83;6.68;;;;;;;-148.56;100.00;61375.16;4939746;28;20041;-35
2021/06/20 14:31:53;;;;;;;36.08;6.72;;;;;;;-148.56;100.00;61375.16;4941712;28;20039;-36
2021/06/20 14:35:17;;;;;;;31.58;6.90;;;;;;;-148.56;100.00;61375.16;4937721;28;20125;-32
2021/06/20 14:38:41;;;;;;;28.13;6.30;;;;;;;-148.56;100.00;61375.16;4944946;28;20138;-35
2021/06/20 14:42:05;;;;;;;34.53;6.28;;;;;;;-148.56;100.00;61375.16;4939128;28;20065;-38
2021/06/20 14:45:29;;;;;;;32.88;6.20;;;;;;;-148.56;100.00;61375.16;4940294;28;20027;-39
2021/06/20 14:48:53;;;;;;;35.22;6.93;;;;;;;-148.56;100.00;61375.16;4942840;28;20043;-39
2021/06/20 14:52:18;;;;;;;33.45;6.55;;;;;;;-148.56;100.00;61375.16;4937803;28;20031;-32
2021/06/20 14:55:42;;;;;;;37.08;7.30;;;;;;;-148.56;100.00;61375.16;4939018;28;20039;-33
2021/06/20 14:59:06;;;;;;;30.05;6.25;;;;;;;-148.56;100.00;61375.16;4943648;28;20038;-36
2021/06/20 15:02:30;;;;;;;37.03;7.90;;;;;;;-148.56;100.00;61375.16;4942645;28;20043;-38
2021/06/20 15:05:54;;;;;;;33.97;6.22;;;;;;;-148.56;100.00;61375.16;4938801;28;20066;-38
2021/06/20 15:09:18;;;;;;;39.67;6.97;;;;;;;-148.56;100.00;61375.16;4937974;28;20035;-37